Terminal Aerodrome Forecast
Issued by NWS Jackson, KY

Home | Current Version | Previous Version | Text Only | Print | Product List | Glossary On
Versions: 1 2 3 4 5 6 7 8 9 10 11 12 13 14 15 16 17 18 19 20 21 22
267
FTUS43 KJKL 280539
TAFJKL
TAF
KJKL 280539Z 2806/2906 VRB06G18KT 3SM TSRA BR SCT015 OVC030CB
     FM280730 VRB03KT P6SM VCTS OVC035CB
     FM281400 23005KT P6SM -SGRA VCTS BKN030CB
     FM282000 26009KT P6SM VCSH SCT090
     FM282200 26008KT P6SM SCT130=

USA.gov is the U.S. government's official web portal to all federal, state and local government web resources and services.